Vashon, WA (98013)

4:53 PM PDT on August 21, 2014 (GMT -0700)
Vashon Loop Maury Island | Change Station
CLOSE
Current Station
Personal Weather Station
Location: Vashon, WA
Elevation: 72 ft
Nearby Weather Stations

Elev 72 ft 47.39 °N, 122.43 °W | Updated 2 minutes ago

Scattered Clouds
Scattered Clouds
69.4 °F
Feels Like 69.4 °F
N
2.9
Wind Variable Wind from West
Gusts 4.0 mph

Today
High -- | Low -- °F
--% Chance of Precip.
Yesterday
High -- | Low -- °F
Precip. -- in
6:14 AM 8:10 PM
Waning Crescent, 11% visible
Pressure 30.03 in
Visibility 10.0 miles
Clouds Few 3000 ft
Scattered Clouds 25000 ft
Dew Point 54 °F
Humidity 58%
Rainfall 0.00 in
Snow Depth Not available.
UV 4 out of 12
Pollen 3.20 out of 12
Air Quality Not available.
Flu Activity Not available.
METAR KSEA 212253Z 25005KT 10SM FEW030 SCT250 20/11 A3001 RMK AO2 SLP167 T02000106

More Conditions Fewer Conditions

Pressure 30.03 in
Visibility 10.0 miles
Clouds Few 3000 ft
Scattered Clouds 25000 ft
Dew Point 54 °F
Humidity 58%
Rainfall 0.00 in
Snow Depth Not available.
UV 4 out of 12
Pollen 3.20 out of 12
Air Quality Not available.
Flu Activity Not available.
METAR KSEA 212253Z 25005KT 10SM FEW030 SCT250 20/11 A3001 RMK AO2 SLP167 T02000106

More Conditions Fewer Conditions

10-Day Weather Forecast

Almanac

Astronomy

Aug. 21, 2014 Rise Set
Actual Time 6:14 AM PDT 8:10 PM PDT
Civil Twilight 5:41 AM PDT 8:43 PM PDT
Nautical Twilight 5:00 AM PDT 9:23 PM PDT
Astronomical Twilight 4:15 AM PDT 10:08 PM PDT
Moon 2:42 AM PDT 5:48 PM PDT
Length of Visible Light 15h 02m
Length of Day
13h 56m
Tomorrow will be 3m 10s shorter.
Waning Crescent, 11% of the Moon is Illuminated
Today
Waning Crescent
Aug 25
New
Sep 2
First Quarter
Sep 8
Full
Sep 15
Last Quarter

Today's Extremes

State Highs State Lows

Community

WunderPhotos

Upload Photos

1,746,055 photos uploaded!

Nearby

Air Quality

  Air Quality AQ Index Pollutant
Thursday Good
OZONE
Thursday Good
PM2.5
Friday Good
OZONE
Friday Good
PM2.5
Saturday Good
OZONE
Saturday Good
PM2.5
Sunday Good
OZONE
Sunday Good
PM2.5
Monday Good
OZONE
Monday Good
PM2.5
Tuesday Good
OZONE
Tuesday Good
PM2.5

Snow Depth

Station Depth Elevation
Dungeness 0 in 4100 ft
Meadows Pass 0 in 3500 ft
Sasse Ridge 0 in 4200 ft
White Pass E.S. 0 in 4500 ft
Lone Pine 0 in 3800 ft

Earthquake Activity

City Distance Mag. Time & Date
No recent earthquake activity has been reported nearby.
Minimum magnitude displayed is 2.5.

Coastal Water Temperatures

Place Temperature
Port Townsend, WA 53.1 °F
Seattle, WA 55.9 °F
Friday Harbor, WA 53.1 °F
Tacoma, WA 55.9 °F

Nearby Weather Stations